createdAt,value
2019-03-04T00:04:12.074Z,77.65
2019-03-04T00:09:23.849Z,77.53
2019-03-04T00:14:35.814Z,77.32
2019-03-04T00:19:47.946Z,76.91
2019-03-04T00:25:02.571Z,76.40
2019-03-04T00:30:13.710Z,76.16
2019-03-04T00:35:23.751Z,76.00
2019-03-04T00:40:37.346Z,76.04
2019-03-04T00:45:49.124Z,76.26
2019-03-04T00:51:00.012Z,76.17
2019-03-04T00:56:15.109Z,75.54
2019-03-04T01:01:30.770Z,75.20
2019-03-04T01:06:41.956Z,75.45
2019-03-04T01:11:51.421Z,75.39
2019-03-04T01:17:04.056Z,76.06
2019-03-04T01:22:17.091Z,75.38
2019-03-04T01:27:26.394Z,75.28
2019-03-04T01:32:34.570Z,74.84
2019-03-04T01:37:43.719Z,74.56
2019-03-04T01:43:13.218Z,74.76
2019-03-04T01:48:22.105Z,74.67
2019-03-04T01:53:37.510Z,74.32
2019-03-04T01:58:50.083Z,75.01
2019-03-04T02:04:03.554Z,76.15
2019-03-04T02:09:18.179Z,78.77
2019-03-04T02:14:31.848Z,79.68
2019-03-04T02:19:39.280Z,79.71
2019-03-04T02:24:57.123Z,78.55
2019-03-04T02:30:09.156Z,77.73
2019-03-04T02:35:42.856Z,76.98
2019-03-04T02:40:58.283Z,76.98
2019-03-04T02:46:10.044Z,75.79
2019-03-04T02:51:20.299Z,75.16
2019-03-04T02:56:33.895Z,74.62
2019-03-04T03:01:41.756Z,73.83
2019-03-04T03:06:53.538Z,72.81
2019-03-04T03:12:07.074Z,72.55
2019-03-04T03:17:16.196Z,72.47
2019-03-04T03:22:24.207Z,72.03
2019-03-04T03:27:32.747Z,71.69
2019-03-04T03:32:44.398Z,72.14
2019-03-04T03:37:56.142Z,71.24
2019-03-04T03:43:08.710Z,70.84
2019-03-04T03:48:24.138Z,70.68
2019-03-04T03:53:36.840Z,69.84
2019-03-04T03:58:47.582Z,70.45
2019-03-04T04:04:01.770Z,70.44
2019-03-04T04:09:10.797Z,69.21
2019-03-04T04:14:19.772Z,68.58
2019-03-04T04:19:28.991Z,69.03
2019-03-04T04:24:37.418Z,67.86
2019-03-04T04:29:52.901Z,67.64
2019-03-04T04:40:37.581Z,65.68
2019-03-04T04:45:47.670Z,65.63
2019-03-04T04:50:59.363Z,63.55
2019-03-04T04:56:10.150Z,63.90
2019-03-04T05:01:21.828Z,64.08
2019-03-04T05:06:34.468Z,63.86
2019-03-04T05:11:46.188Z,64.15
2019-03-04T05:16:57.096Z,64.05
2019-03-04T05:22:07.185Z,65.04
2019-03-04T05:27:15.855Z,65.75
2019-03-04T05:32:26.881Z,66.16
2019-03-04T05:37:37.743Z,66.65
2019-03-04T05:42:48.484Z,67.21
2019-03-04T05:47:57.194Z,66.89
2019-03-04T05:53:09.761Z,67.34
2019-03-04T05:58:19.199Z,67.22
2019-03-04T06:03:30.946Z,66.47
2019-03-04T06:08:40.910Z,72.42
2019-03-04T06:13:56.230Z,75.33
2019-03-04T06:19:06.088Z,75.84
2019-03-04T06:24:15.975Z,80.25
2019-03-04T06:29:29.518Z,87.80
2019-03-04T06:34:42.070Z,90.90
2019-03-04T06:39:49.265Z,92.25
2019-03-04T06:45:00.525Z,92.53
2019-03-04T06:50:10.698Z,91.94
2019-03-04T06:55:31.116Z,90.73
2019-03-04T07:00:50.889Z,90.25
2019-03-04T07:05:59.140Z,88.79
2019-03-04T07:11:10.916Z,86.78
2019-03-04T07:16:22.969Z,85.23
2019-03-04T07:21:31.650Z,81.43
2019-03-04T07:26:42.577Z,81.39
2019-03-04T07:31:54.374Z,82.12
2019-03-04T07:37:04.138Z,81.99
2019-03-04T07:42:13.219Z,82.08
2019-03-04T07:47:22.084Z,81.17
2019-03-04T07:52:33.767Z,80.30
2019-03-04T07:57:43.184Z,79.66
2019-03-04T08:02:56.775Z,79.44
2019-03-04T08:08:08.979Z,78.78
2019-03-04T08:13:42.791Z,79.06
2019-03-04T08:18:52.891Z,78.42
2019-03-04T08:24:08.233Z,80.26
2019-03-04T08:29:18.237Z,83.53
2019-03-04T08:34:31.549Z,85.84
2019-03-04T08:39:43.460Z,86.15
2019-03-04T08:44:54.291Z,88.15
2019-03-04T08:50:04.934Z,88.55
2019-03-04T08:55:19.492Z,89.65
2019-03-04T09:00:32.103Z,91.49
2019-03-04T09:05:41.934Z,90.29
2019-03-04T09:10:57.574Z,91.26
2019-03-04T09:16:14.771Z,92.51
2019-03-04T09:21:26.499Z,91.76
2019-03-04T09:26:38.404Z,92.39
2019-03-04T09:31:48.476Z,92.98
2019-03-04T09:37:00.964Z,91.67
2019-03-04T09:42:28.710Z,91.59
2019-03-04T09:47:40.836Z,92.25
2019-03-04T09:52:50.692Z,92.14
2019-03-04T09:58:00.733Z,92.15
2019-03-04T10:03:45.964Z,90.85
2019-03-04T10:09:07.551Z,90.34
2019-03-04T10:14:41.029Z,90.01
2019-03-04T10:20:14.838Z,88.41
2019-03-04T10:26:06.259Z,88.46
2019-03-04T10:31:42.049Z,87.01
2019-03-04T10:37:21.911Z,87.74
2019-03-04T10:43:20.684Z,84.75
2019-03-04T10:48:30.536Z,85.92
2019-03-04T10:53:40.954Z,85.54
2019-03-04T10:58:53.120Z,84.68
2019-03-04T11:04:05.768Z,82.47
2019-03-04T11:09:15.715Z,82.07
2019-03-04T11:14:24.908Z,78.79
2019-03-04T11:19:34.201Z,78.77
2019-03-04T11:24:44.037Z,80.79
2019-03-04T11:29:54.929Z,77.94
2019-03-04T11:35:07.473Z,78.29
2019-03-04T11:40:34.092Z,76.35
2019-03-04T11:45:46.687Z,75.00
2019-03-04T11:51:00.703Z,73.19
2019-03-04T11:56:10.439Z,75.75
2019-03-04T12:01:36.268Z,74.55
2019-03-04T12:06:46.409Z,75.22
2019-03-04T12:11:59.118Z,73.81
2019-03-04T12:17:10.136Z,72.97
2019-03-04T12:22:23.718Z,71.14
2019-03-04T12:27:45.894Z,72.06
2019-03-04T12:32:55.746Z,72.28
2019-03-04T12:38:08.419Z,73.05
2019-03-04T12:43:18.243Z,71.13
2019-03-04T12:48:28.939Z,71.67
2019-03-04T12:53:40.613Z,70.36
2019-03-04T12:58:50.976Z,67.93
2019-03-04T13:04:05.026Z,64.75
2019-03-04T13:09:15.186Z,62.38
2019-03-04T13:14:23.974Z,59.45
2019-03-04T13:19:38.409Z,59.97
2019-03-04T13:24:48.295Z,63.74
2019-03-04T13:29:59.941Z,60.02
2019-03-04T13:35:11.767Z,58.72
2019-03-04T13:40:21.763Z,58.16
2019-03-04T13:45:36.295Z,62.71
2019-03-04T13:50:46.188Z,61.94
2019-03-04T13:55:56.014Z,57.82
2019-03-04T14:01:06.143Z,57.08
2019-03-04T14:06:18.933Z,57.03
2019-03-04T14:11:31.204Z,53.63
2019-03-04T14:16:42.059Z,55.23
2019-03-04T14:21:57.282Z,52.42
2019-03-04T14:27:07.798Z,53.67
2019-03-04T14:32:17.610Z,51.51
2019-03-04T14:37:32.389Z,51.03
2019-03-04T14:42:45.270Z,49.49
2019-03-04T14:47:55.196Z,47.46
2019-03-04T14:53:06.055Z,49.11
2019-03-04T14:58:15.950Z,52.49
2019-03-04T15:03:33.636Z,50.42
2019-03-04T15:08:46.213Z,54.65
2019-03-04T15:13:57.901Z,56.04
2019-03-04T15:19:12.362Z,60.15
2019-03-04T15:24:20.619Z,61.76
2019-03-04T15:29:29.346Z,61.68
2019-03-04T15:34:38.373Z,61.85
2019-03-04T15:39:48.749Z,63.64
2019-03-04T15:45:00.258Z,66.55
2019-03-04T15:50:10.397Z,67.33
2019-03-04T15:55:19.517Z,68.08
2019-03-04T16:00:29.380Z,68.98
2019-03-04T16:05:44.701Z,69.52
2019-03-04T16:10:58.338Z,69.08
2019-03-04T16:16:08.234Z,68.85
2019-03-04T16:21:18.295Z,69.63
2019-03-04T16:26:28.288Z,69.35
2019-03-04T16:31:37.833Z,69.54
2019-03-04T16:36:46.820Z,69.69
2019-03-04T16:41:54.953Z,70.11
2019-03-04T16:47:05.766Z,69.62
2019-03-04T16:52:15.457Z,69.64
2019-03-04T16:57:28.011Z,68.60
2019-03-04T17:02:38.886Z,68.70
2019-03-04T17:07:51.082Z,69.27
2019-03-04T17:12:59.153Z,70.04
2019-03-04T17:18:17.572Z,69.85
2019-03-04T17:23:38.348Z,70.51
2019-03-04T17:28:51.828Z,70.57
2019-03-04T17:34:59.791Z,71.25
2019-03-04T17:40:12.777Z,71.54
2019-03-04T17:45:20.913Z,71.93
2019-03-04T17:50:34.301Z,72.09
2019-03-04T17:55:47.945Z,72.47
2019-03-04T18:00:59.075Z,72.03
2019-03-04T18:06:07.353Z,72.05
2019-03-04T18:11:21.025Z,72.46
2019-03-04T18:16:33.825Z,72.78
2019-03-04T18:21:43.686Z,73.11
2019-03-04T18:27:19.470Z,73.32
2019-03-04T18:33:02.515Z,73.48
2019-03-04T18:38:43.510Z,73.84
2019-03-04T18:44:29.259Z,74.08
2019-03-04T18:49:36.877Z,74.33
2019-03-04T18:54:46.826Z,74.95
2019-03-04T18:59:54.304Z,75.76
2019-03-04T19:05:08.464Z,76.25
2019-03-04T19:10:16.416Z,76.54
2019-03-04T19:15:24.662Z,76.82
2019-03-04T19:20:38.210Z,76.70
2019-03-04T19:25:47.491Z,76.69
2019-03-04T19:31:02.594Z,76.69
2019-03-04T19:36:14.444Z,76.46
2019-03-04T19:41:24.456Z,76.27
2019-03-04T19:46:38.061Z,75.60
2019-03-04T19:51:49.079Z,75.22
2019-03-04T19:56:57.622Z,74.65
2019-03-04T20:02:08.098Z,74.14
2019-03-04T20:07:15.434Z,74.65
2019-03-04T20:12:27.908Z,75.64
2019-03-04T20:17:36.060Z,76.15
2019-03-04T20:22:46.913Z,76.77
2019-03-04T20:27:55.431Z,77.26
2019-03-04T20:33:06.668Z,77.58
2019-03-04T20:38:15.811Z,78.09
2019-03-04T20:43:26.679Z,78.46
2019-03-04T20:48:39.302Z,79.76
2019-03-04T20:53:52.078Z,81.92
2019-03-04T20:59:02.820Z,83.82
2019-03-04T21:04:12.231Z,85.51
2019-03-04T21:09:23.395Z,86.29
2019-03-04T21:14:51.907Z,86.55
2019-03-04T21:20:05.540Z,85.38
2019-03-04T21:25:35.552Z,84.92
2019-03-04T21:31:26.271Z,84.80
2019-03-04T21:37:07.738Z,84.41
2019-03-04T21:42:26.842Z,84.21
2019-03-04T21:47:37.924Z,84.46
2019-03-04T21:52:53.857Z,84.35
2019-03-04T21:58:02.512Z,84.35
2019-03-04T22:03:23.234Z,87.30
2019-03-04T22:08:32.148Z,89.07
2019-03-04T22:13:44.017Z,88.80
2019-03-04T22:18:56.632Z,87.96
2019-03-04T22:24:07.509Z,87.39
2019-03-04T22:29:17.287Z,86.13
2019-03-04T22:34:26.673Z,84.55
2019-03-04T22:39:37.430Z,84.13
2019-03-04T22:44:46.641Z,84.26
2019-03-04T22:49:58.360Z,83.64
2019-03-04T22:55:09.832Z,83.92
2019-03-04T23:01:19.095Z,83.65
2019-03-04T23:06:34.115Z,83.49
2019-03-04T23:11:42.961Z,83.47
2019-03-04T23:16:54.787Z,83.15
2019-03-04T23:22:03.683Z,83.30
2019-03-04T23:27:14.535Z,83.79
2019-03-04T23:32:27.305Z,83.76
2019-03-04T23:37:42.594Z,83.68
2019-03-04T23:42:53.813Z,82.52
2019-03-04T23:48:06.692Z,82.92
2019-03-04T23:53:13.869Z,83.37
2019-03-04T23:58:29.972Z,82.69
